sensor_id;sensor_type;location;lat;lon;timestamp;P1;durP1;ratioP1;P2;durP2;ratioP2
8574;SDS011;4325;42.520;27.448;2022-07-29T00:01:25;7.13;;;4.20;;
8574;SDS011;4325;42.520;27.448;2022-07-29T00:03:52;6.17;;;4.43;;
8574;SDS011;4325;42.520;27.448;2022-07-29T00:06:19;8.20;;;3.97;;
8574;SDS011;4325;42.520;27.448;2022-07-29T00:08:47;6.47;;;3.97;;
8574;SDS011;4325;42.520;27.448;2022-07-29T00:11:14;4.77;;;4.10;;
8574;SDS011;4325;42.520;27.448;2022-07-29T00:13:41;5.93;;;3.90;;
8574;SDS011;4325;42.520;27.448;2022-07-29T00:16:08;8.20;;;3.83;;
8574;SDS011;4325;42.520;27.448;2022-07-29T00:18:35;7.10;;;4.13;;
8574;SDS011;4325;42.520;27.448;2022-07-29T00:21:02;6.67;;;3.97;;
8574;SDS011;4325;42.520;27.448;2022-07-29T00:23:28;4.77;;;3.87;;
8574;SDS011;4325;42.520;27.448;2022-07-29T00:25:57;5.67;;;4.27;;
8574;SDS011;4325;42.520;27.448;2022-07-29T00:28:23;8.13;;;3.67;;
8574;SDS011;4325;42.520;27.448;2022-07-29T00:30:50;7.87;;;4.07;;
8574;SDS011;4325;42.520;27.448;2022-07-29T00:33:17;4.10;;;3.60;;
8574;SDS011;4325;42.520;27.448;2022-07-29T00:35:44;7.40;;;4.33;;
8574;SDS011;4325;42.520;27.448;2022-07-29T00:38:10;6.37;;;4.40;;
8574;SDS011;4325;42.520;27.448;2022-07-29T00:40:37;4.87;;;3.97;;
8574;SDS011;4325;42.520;27.448;2022-07-29T00:43:06;4.40;;;4.00;;
8574;SDS011;4325;42.520;27.448;2022-07-29T00:45:32;6.60;;;4.77;;
8574;SDS011;4325;42.520;27.448;2022-07-29T00:48:00;4.00;;;3.70;;
8574;SDS011;4325;42.520;27.448;2022-07-29T00:50:27;4.13;;;3.83;;
8574;SDS011;4325;42.520;27.448;2022-07-29T00:52:54;6.73;;;4.20;;
8574;SDS011;4325;42.520;27.448;2022-07-29T00:55:21;4.83;;;4.10;;
8574;SDS011;4325;42.520;27.448;2022-07-29T00:57:48;4.53;;;4.10;;
8574;SDS011;4325;42.520;27.448;2022-07-29T01:00:19;6.40;;;3.97;;
8574;SDS011;4325;42.520;27.448;2022-07-29T01:02:47;5.43;;;3.87;;
8574;SDS011;4325;42.520;27.448;2022-07-29T01:05:15;4.37;;;4.00;;
8574;SDS011;4325;42.520;27.448;2022-07-29T01:07:44;5.50;;;4.70;;
8574;SDS011;4325;42.520;27.448;2022-07-29T01:10:13;7.53;;;4.50;;
8574;SDS011;4325;42.520;27.448;2022-07-29T01:12:42;5.40;;;4.40;;
8574;SDS011;4325;42.520;27.448;2022-07-29T01:15:11;5.20;;;4.40;;
8574;SDS011;4325;42.520;27.448;2022-07-29T01:17:41;13.30;;;4.73;;
8574;SDS011;4325;42.520;27.448;2022-07-29T01:20:13;7.17;;;5.27;;
8574;SDS011;4325;42.520;27.448;2022-07-29T01:26:03;6.17;;;5.10;;
8574;SDS011;4325;42.520;27.448;2022-07-29T01:28:54;6.83;;;4.60;;
8574;SDS011;4325;42.520;27.448;2022-07-29T01:31:34;7.57;;;5.43;;
8574;SDS011;4325;42.520;27.448;2022-07-29T01:34:07;8.47;;;6.37;;
8574;SDS011;4325;42.520;27.448;2022-07-29T01:36:40;9.67;;;6.17;;
8574;SDS011;4325;42.520;27.448;2022-07-29T01:39:12;7.50;;;5.53;;
8574;SDS011;4325;42.520;27.448;2022-07-29T01:41:47;7.63;;;4.93;;
8574;SDS011;4325;42.520;27.448;2022-07-29T01:44:18;8.10;;;5.30;;
8574;SDS011;4325;42.520;27.448;2022-07-29T01:46:49;9.37;;;4.97;;
8574;SDS011;4325;42.520;27.448;2022-07-29T01:49:21;5.33;;;4.67;;
8574;SDS011;4325;42.520;27.448;2022-07-29T01:51:54;5.70;;;4.23;;
8574;SDS011;4325;42.520;27.448;2022-07-29T01:54:26;4.70;;;4.27;;
8574;SDS011;4325;42.520;27.448;2022-07-29T01:56:58;4.63;;;4.23;;
8574;SDS011;4325;42.520;27.448;2022-07-29T01:59:28;5.87;;;4.73;;
8574;SDS011;4325;42.520;27.448;2022-07-29T02:01:57;5.33;;;4.37;;
8574;SDS011;4325;42.520;27.448;2022-07-29T02:04:25;5.23;;;4.50;;
8574;SDS011;4325;42.520;27.448;2022-07-29T02:06:54;5.40;;;4.40;;
8574;SDS011;4325;42.520;27.448;2022-07-29T02:09:25;5.30;;;4.03;;
8574;SDS011;4325;42.520;27.448;2022-07-29T02:11:53;4.57;;;3.90;;
8574;SDS011;4325;42.520;27.448;2022-07-29T02:14:22;8.77;;;4.83;;
8574;SDS011;4325;42.520;27.448;2022-07-29T02:16:52;10.23;;;4.53;;
8574;SDS011;4325;42.520;27.448;2022-07-29T02:19:21;13.13;;;8.87;;
8574;SDS011;4325;42.520;27.448;2022-07-29T02:21:50;8.03;;;5.87;;
8574;SDS011;4325;42.520;27.448;2022-07-29T02:24:20;7.70;;;5.47;;
8574;SDS011;4325;42.520;27.448;2022-07-29T02:26:49;7.50;;;6.50;;
8574;SDS011;4325;42.520;27.448;2022-07-29T02:29:16;7.83;;;5.10;;
8574;SDS011;4325;42.520;27.448;2022-07-29T02:31:45;6.73;;;6.20;;
8574;SDS011;4325;42.520;27.448;2022-07-29T02:34:16;6.83;;;4.53;;
8574;SDS011;4325;42.520;27.448;2022-07-29T02:36:44;6.73;;;4.87;;
8574;SDS011;4325;42.520;27.448;2022-07-29T02:39:12;6.70;;;5.30;;
8574;SDS011;4325;42.520;27.448;2022-07-29T02:41:42;11.07;;;9.97;;
8574;SDS011;4325;42.520;27.448;2022-07-29T02:44:15;5.70;;;4.83;;
8574;SDS011;4325;42.520;27.448;2022-07-29T02:46:46;12.13;;;9.83;;
8574;SDS011;4325;42.520;27.448;2022-07-29T02:49:23;10.37;;;8.80;;
8574;SDS011;4325;42.520;27.448;2022-07-29T02:51:59;10.20;;;6.80;;
8574;SDS011;4325;42.520;27.448;2022-07-29T02:54:30;6.43;;;4.90;;
8574;SDS011;4325;42.520;27.448;2022-07-29T02:57:00;7.53;;;4.67;;
8574;SDS011;4325;42.520;27.448;2022-07-29T02:59:33;8.93;;;7.10;;
8574;SDS011;4325;42.520;27.448;2022-07-29T03:02:02;10.77;;;5.60;;
8574;SDS011;4325;42.520;27.448;2022-07-29T03:04:33;6.63;;;5.30;;
8574;SDS011;4325;42.520;27.448;2022-07-29T03:07:01;7.10;;;5.33;;
8574;SDS011;4325;42.520;27.448;2022-07-29T03:09:29;6.33;;;5.77;;
8574;SDS011;4325;42.520;27.448;2022-07-29T03:11:56;10.63;;;6.27;;
8574;SDS011;4325;42.520;27.448;2022-07-29T03:14:23;9.60;;;5.40;;
8574;SDS011;4325;42.520;27.448;2022-07-29T03:16:51;9.33;;;4.93;;
8574;SDS011;4325;42.520;27.448;2022-07-29T03:19:19;7.70;;;5.80;;
8574;SDS011;4325;42.520;27.448;2022-07-29T03:21:48;10.00;;;6.37;;
8574;SDS011;4325;42.520;27.448;2022-07-29T03:24:24;8.27;;;5.83;;
8574;SDS011;4325;42.520;27.448;2022-07-29T03:26:52;13.63;;;5.43;;
8574;SDS011;4325;42.520;27.448;2022-07-29T03:29:20;6.90;;;6.30;;
8574;SDS011;4325;42.520;27.448;2022-07-29T03:31:47;11.40;;;7.93;;
8574;SDS011;4325;42.520;27.448;2022-07-29T03:34:14;9.07;;;6.80;;
8574;SDS011;4325;42.520;27.448;2022-07-29T03:36:41;7.70;;;6.60;;
8574;SDS011;4325;42.520;27.448;2022-07-29T03:39:09;10.67;;;5.57;;
8574;SDS011;4325;42.520;27.448;2022-07-29T03:41:38;8.13;;;6.73;;
8574;SDS011;4325;42.520;27.448;2022-07-29T03:44:06;9.73;;;5.90;;
8574;SDS011;4325;42.520;27.448;2022-07-29T03:46:34;12.37;;;6.33;;
8574;SDS011;4325;42.520;27.448;2022-07-29T03:49:03;14.10;;;7.17;;
8574;SDS011;4325;42.520;27.448;2022-07-29T03:51:33;9.13;;;6.83;;
8574;SDS011;4325;42.520;27.448;2022-07-29T03:54:01;11.20;;;9.30;;
8574;SDS011;4325;42.520;27.448;2022-07-29T03:56:31;9.03;;;8.10;;
8574;SDS011;4325;42.520;27.448;2022-07-29T03:59:01;12.17;;;8.23;;
8574;SDS011;4325;42.520;27.448;2022-07-29T04:01:29;8.00;;;6.60;;
8574;SDS011;4325;42.520;27.448;2022-07-29T04:03:58;11.63;;;7.00;;
8574;SDS011;4325;42.520;27.448;2022-07-29T04:06:27;10.90;;;7.73;;
8574;SDS011;4325;42.520;27.448;2022-07-29T04:08:53;10.90;;;6.50;;
8574;SDS011;4325;42.520;27.448;2022-07-29T04:11:20;19.03;;;6.43;;
8574;SDS011;4325;42.520;27.448;2022-07-29T04:13:48;9.50;;;6.10;;
8574;SDS011;4325;42.520;27.448;2022-07-29T04:16:15;8.63;;;6.27;;
8574;SDS011;4325;42.520;27.448;2022-07-29T04:18:42;7.90;;;6.53;;
8574;SDS011;4325;42.520;27.448;2022-07-29T04:21:09;12.60;;;6.47;;
8574;SDS011;4325;42.520;27.448;2022-07-29T04:23:36;6.90;;;6.03;;
8574;SDS011;4325;42.520;27.448;2022-07-29T04:26:02;9.30;;;6.20;;
8574;SDS011;4325;42.520;27.448;2022-07-29T04:28:29;14.50;;;6.30;;
8574;SDS011;4325;42.520;27.448;2022-07-29T04:30:58;8.33;;;6.30;;
8574;SDS011;4325;42.520;27.448;2022-07-29T04:33:24;10.13;;;6.63;;
8574;SDS011;4325;42.520;27.448;2022-07-29T04:35:51;8.87;;;6.80;;
8574;SDS011;4325;42.520;27.448;2022-07-29T04:38:18;10.67;;;6.20;;
8574;SDS011;4325;42.520;27.448;2022-07-29T04:40:45;9.43;;;6.50;;
8574;SDS011;4325;42.520;27.448;2022-07-29T04:43:12;10.53;;;6.67;;
8574;SDS011;4325;42.520;27.448;2022-07-29T04:45:38;11.00;;;6.33;;
8574;SDS011;4325;42.520;27.448;2022-07-29T04:48:07;10.97;;;6.93;;
8574;SDS011;4325;42.520;27.448;2022-07-29T04:50:34;9.37;;;6.67;;
8574;SDS011;4325;42.520;27.448;2022-07-29T04:53:04;13.00;;;7.30;;
8574;SDS011;4325;42.520;27.448;2022-07-29T04:55:31;9.53;;;6.27;;
8574;SDS011;4325;42.520;27.448;2022-07-29T04:57:58;13.40;;;6.97;;
8574;SDS011;4325;42.520;27.448;2022-07-29T05:00:25;19.17;;;7.20;;
8574;SDS011;4325;42.520;27.448;2022-07-29T05:02:52;14.47;;;7.03;;
8574;SDS011;4325;42.520;27.448;2022-07-29T05:05:20;9.07;;;6.77;;
8574;SDS011;4325;42.520;27.448;2022-07-29T05:07:47;9.40;;;6.43;;
8574;SDS011;4325;42.520;27.448;2022-07-29T05:10:14;13.67;;;6.67;;
8574;SDS011;4325;42.520;27.448;2022-07-29T05:12:41;15.90;;;7.60;;
8574;SDS011;4325;42.520;27.448;2022-07-29T05:15:08;13.37;;;6.77;;
8574;SDS011;4325;42.520;27.448;2022-07-29T05:17:36;14.83;;;7.43;;
8574;SDS011;4325;42.520;27.448;2022-07-29T05:20:03;16.07;;;6.30;;
8574;SDS011;4325;42.520;27.448;2022-07-29T05:22:32;10.13;;;5.37;;
8574;SDS011;4325;42.520;27.448;2022-07-29T05:24:59;7.77;;;4.43;;
8574;SDS011;4325;42.520;27.448;2022-07-29T05:27:26;7.00;;;4.73;;
8574;SDS011;4325;42.520;27.448;2022-07-29T05:29:52;12.73;;;4.00;;
8574;SDS011;4325;42.520;27.448;2022-07-29T05:32:19;8.03;;;3.97;;
8574;SDS011;4325;42.520;27.448;2022-07-29T05:34:46;5.07;;;4.30;;
8574;SDS011;4325;42.520;27.448;2022-07-29T05:37:13;5.23;;;3.57;;
8574;SDS011;4325;42.520;27.448;2022-07-29T05:39:41;10.07;;;4.90;;
8574;SDS011;4325;42.520;27.448;2022-07-29T05:42:08;8.13;;;3.70;;
8574;SDS011;4325;42.520;27.448;2022-07-29T05:44:36;5.20;;;3.73;;
8574;SDS011;4325;42.520;27.448;2022-07-29T05:47:03;7.53;;;3.70;;
8574;SDS011;4325;42.520;27.448;2022-07-29T05:49:31;3.57;;;3.23;;
8574;SDS011;4325;42.520;27.448;2022-07-29T05:51:58;5.50;;;3.73;;
8574;SDS011;4325;42.520;27.448;2022-07-29T05:54:25;6.40;;;3.50;;
8574;SDS011;4325;42.520;27.448;2022-07-29T05:56:53;4.40;;;3.50;;
8574;SDS011;4325;42.520;27.448;2022-07-29T05:59:20;11.10;;;4.10;;
8574;SDS011;4325;42.520;27.448;2022-07-29T06:01:47;19.77;;;4.50;;
8574;SDS011;4325;42.520;27.448;2022-07-29T06:04:14;16.03;;;4.50;;
8574;SDS011;4325;42.520;27.448;2022-07-29T06:06:41;9.40;;;3.90;;
8574;SDS011;4325;42.520;27.448;2022-07-29T06:09:08;11.33;;;4.00;;
8574;SDS011;4325;42.520;27.448;2022-07-29T06:11:34;10.33;;;5.33;;
8574;SDS011;4325;42.520;27.448;2022-07-29T06:14:03;19.33;;;4.77;;
8574;SDS011;4325;42.520;27.448;2022-07-29T06:16:29;20.17;;;5.30;;
8574;SDS011;4325;42.520;27.448;2022-07-29T06:18:56;17.57;;;4.93;;
8574;SDS011;4325;42.520;27.448;2022-07-29T06:21:23;11.77;;;5.07;;
8574;SDS011;4325;42.520;27.448;2022-07-29T06:23:50;5.10;;;4.03;;
8574;SDS011;4325;42.520;27.448;2022-07-29T06:26:17;5.20;;;3.50;;
8574;SDS011;4325;42.520;27.448;2022-07-29T06:28:44;4.33;;;3.77;;
8574;SDS011;4325;42.520;27.448;2022-07-29T06:31:12;4.70;;;4.30;;
8574;SDS011;4325;42.520;27.448;2022-07-29T06:33:39;5.63;;;3.40;;
8574;SDS011;4325;42.520;27.448;2022-07-29T06:36:06;6.50;;;4.00;;
8574;SDS011;4325;42.520;27.448;2022-07-29T06:38:33;11.43;;;4.90;;
8574;SDS011;4325;42.520;27.448;2022-07-29T06:41:00;4.93;;;4.43;;
8574;SDS011;4325;42.520;27.448;2022-07-29T06:43:27;11.37;;;3.83;;
8574;SDS011;4325;42.520;27.448;2022-07-29T06:45:57;6.97;;;3.93;;
8574;SDS011;4325;42.520;27.448;2022-07-29T06:48:27;5.17;;;4.70;;
8574;SDS011;4325;42.520;27.448;2022-07-29T06:50:54;8.80;;;6.70;;
8574;SDS011;4325;42.520;27.448;2022-07-29T06:53:21;11.37;;;6.70;;
8574;SDS011;4325;42.520;27.448;2022-07-29T06:55:48;9.47;;;4.00;;
8574;SDS011;4325;42.520;27.448;2022-07-29T06:58:15;4.30;;;3.70;;
8574;SDS011;4325;42.520;27.448;2022-07-29T07:00:45;5.97;;;4.23;;
8574;SDS011;4325;42.520;27.448;2022-07-29T07:03:12;8.13;;;3.53;;
8574;SDS011;4325;42.520;27.448;2022-07-29T07:05:41;8.30;;;3.70;;
8574;SDS011;4325;42.520;27.448;2022-07-29T07:08:08;8.53;;;4.00;;
8574;SDS011;4325;42.520;27.448;2022-07-29T07:10:35;5.67;;;4.20;;
8574;SDS011;4325;42.520;27.448;2022-07-29T07:13:02;5.53;;;3.70;;
8574;SDS011;4325;42.520;27.448;2022-07-29T07:15:30;10.27;;;4.00;;
8574;SDS011;4325;42.520;27.448;2022-07-29T07:17:58;6.00;;;4.10;;
8574;SDS011;4325;42.520;27.448;2022-07-29T07:20:25;6.03;;;3.63;;
8574;SDS011;4325;42.520;27.448;2022-07-29T07:22:53;3.80;;;3.50;;
8574;SDS011;4325;42.520;27.448;2022-07-29T07:25:20;7.50;;;3.67;;
8574;SDS011;4325;42.520;27.448;2022-07-29T07:27:47;4.50;;;3.97;;
8574;SDS011;4325;42.520;27.448;2022-07-29T07:30:14;8.00;;;4.20;;
8574;SDS011;4325;42.520;27.448;2022-07-29T07:32:40;6.87;;;3.80;;
8574;SDS011;4325;42.520;27.448;2022-07-29T07:35:08;6.00;;;3.30;;
8574;SDS011;4325;42.520;27.448;2022-07-29T07:37:35;5.97;;;3.60;;
8574;SDS011;4325;42.520;27.448;2022-07-29T07:40:05;4.73;;;3.73;;
8574;SDS011;4325;42.520;27.448;2022-07-29T07:42:32;5.37;;;3.27;;
8574;SDS011;4325;42.520;27.448;2022-07-29T07:45:00;4.27;;;3.87;;
8574;SDS011;4325;42.520;27.448;2022-07-29T07:47:27;4.53;;;3.80;;
8574;SDS011;4325;42.520;27.448;2022-07-29T07:49:53;8.03;;;4.13;;
8574;SDS011;4325;42.520;27.448;2022-07-29T07:52:20;10.63;;;3.80;;
8574;SDS011;4325;42.520;27.448;2022-07-29T07:54:48;5.93;;;3.40;;
8574;SDS011;4325;42.520;27.448;2022-07-29T07:57:17;5.03;;;3.47;;
8574;SDS011;4325;42.520;27.448;2022-07-29T07:59:44;7.43;;;3.43;;
8574;SDS011;4325;42.520;27.448;2022-07-29T08:02:10;8.23;;;3.67;;
8574;SDS011;4325;42.520;27.448;2022-07-29T08:04:37;6.70;;;4.07;;
8574;SDS011;4325;42.520;27.448;2022-07-29T08:07:06;4.40;;;4.00;;
8574;SDS011;4325;42.520;27.448;2022-07-29T08:09:34;4.67;;;3.63;;
8574;SDS011;4325;42.520;27.448;2022-07-29T08:12:01;9.87;;;3.97;;
8574;SDS011;4325;42.520;27.448;2022-07-29T08:14:32;5.43;;;3.80;;
8574;SDS011;4325;42.520;27.448;2022-07-29T08:16:59;4.70;;;3.57;;
8574;SDS011;4325;42.520;27.448;2022-07-29T08:19:26;6.50;;;3.70;;
8574;SDS011;4325;42.520;27.448;2022-07-29T08:21:53;8.13;;;3.90;;
8574;SDS011;4325;42.520;27.448;2022-07-29T08:24:20;5.97;;;4.20;;
8574;SDS011;4325;42.520;27.448;2022-07-29T08:27:16;5.27;;;3.37;;
8574;SDS011;4325;42.520;27.448;2022-07-29T08:29:44;6.37;;;3.60;;
8574;SDS011;4325;42.520;27.448;2022-07-29T08:32:11;4.70;;;3.53;;
8574;SDS011;4325;42.520;27.448;2022-07-29T08:34:38;10.43;;;5.10;;
8574;SDS011;4325;42.520;27.448;2022-07-29T08:37:05;7.33;;;3.47;;
8574;SDS011;4325;42.520;27.448;2022-07-29T08:39:32;4.40;;;3.40;;
8574;SDS011;4325;42.520;27.448;2022-07-29T08:41:58;4.03;;;3.10;;
8574;SDS011;4325;42.520;27.448;2022-07-29T08:44:25;6.90;;;3.70;;
8574;SDS011;4325;42.520;27.448;2022-07-29T08:46:54;4.87;;;3.10;;
8574;SDS011;4325;42.520;27.448;2022-07-29T08:49:20;7.87;;;3.40;;
8574;SDS011;4325;42.520;27.448;2022-07-29T08:51:47;7.67;;;3.30;;
8574;SDS011;4325;42.520;27.448;2022-07-29T08:54:16;4.50;;;3.53;;
8574;SDS011;4325;42.520;27.448;2022-07-29T08:56:43;5.83;;;2.90;;
8574;SDS011;4325;42.520;27.448;2022-07-29T08:59:14;5.80;;;3.22;;
8574;SDS011;4325;42.520;27.448;2022-07-29T09:01:42;5.03;;;3.53;;
8574;SDS011;4325;42.520;27.448;2022-07-29T09:04:12;8.52;;;3.28;;
8574;SDS011;4325;42.520;27.448;2022-07-29T09:06:42;12.55;;;3.20;;
8574;SDS011;4325;42.520;27.448;2022-07-29T09:09:11;3.55;;;2.90;;
8574;SDS011;4325;42.520;27.448;2022-07-29T09:11:38;5.60;;;3.03;;
8574;SDS011;4325;42.520;27.448;2022-07-29T09:14:06;6.07;;;3.10;;
8574;SDS011;4325;42.520;27.448;2022-07-29T09:16:52;8.88;;;2.83;;
8574;SDS011;4325;42.520;27.448;2022-07-29T09:19:22;5.55;;;3.38;;
8574;SDS011;4325;42.520;27.448;2022-07-29T09:21:51;7.68;;;2.70;;
8574;SDS011;4325;42.520;27.448;2022-07-29T09:24:24;7.47;;;4.00;;
8574;SDS011;4325;42.520;27.448;2022-07-29T09:26:52;8.18;;;3.08;;
8574;SDS011;4325;42.520;27.448;2022-07-29T09:29:20;10.65;;;2.90;;
8574;SDS011;4325;42.520;27.448;2022-07-29T09:31:49;9.30;;;3.33;;
8574;SDS011;4325;42.520;27.448;2022-07-29T09:34:20;6.60;;;2.85;;
8574;SDS011;4325;42.520;27.448;2022-07-29T09:36:50;5.57;;;2.53;;
8574;SDS011;4325;42.520;27.448;2022-07-29T09:39:26;8.75;;;3.03;;
8574;SDS011;4325;42.520;27.448;2022-07-29T09:41:54;8.68;;;2.90;;
8574;SDS011;4325;42.520;27.448;2022-07-29T09:44:23;5.22;;;2.53;;
8574;SDS011;4325;42.520;27.448;2022-07-29T09:46:54;5.22;;;2.60;;
8574;SDS011;4325;42.520;27.448;2022-07-29T09:49:23;13.38;;;2.88;;
8574;SDS011;4325;42.520;27.448;2022-07-29T09:52:00;5.30;;;2.60;;
8574;SDS011;4325;42.520;27.448;2022-07-29T09:54:31;4.70;;;2.47;;
8574;SDS011;4325;42.520;27.448;2022-07-29T09:57:01;6.20;;;2.45;;
8574;SDS011;4325;42.520;27.448;2022-07-29T09:59:29;7.47;;;2.55;;
8574;SDS011;4325;42.520;27.448;2022-07-29T10:01:56;5.00;;;2.47;;
8574;SDS011;4325;42.520;27.448;2022-07-29T10:04:24;5.20;;;2.70;;
8574;SDS011;4325;42.520;27.448;2022-07-29T10:07:03;10.50;;;2.88;;
8574;SDS011;4325;42.520;27.448;2022-07-29T10:09:30;7.53;;;2.42;;
8574;SDS011;4325;42.520;27.448;2022-07-29T10:12:05;3.83;;;2.53;;
8574;SDS011;4325;42.520;27.448;2022-07-29T10:14:34;3.08;;;2.22;;
8574;SDS011;4325;42.520;27.448;2022-07-29T10:17:02;7.32;;;3.20;;
8574;SDS011;4325;42.520;27.448;2022-07-29T10:19:31;6.53;;;2.35;;
8574;SDS011;4325;42.520;27.448;2022-07-29T10:22:00;4.30;;;2.45;;
8574;SDS011;4325;42.520;27.448;2022-07-29T10:24:29;8.57;;;2.50;;
8574;SDS011;4325;42.520;27.448;2022-07-29T10:26:57;9.75;;;3.17;;
8574;SDS011;4325;42.520;27.448;2022-07-29T10:29:26;5.32;;;2.85;;
8574;SDS011;4325;42.520;27.448;2022-07-29T10:31:57;8.05;;;3.05;;
8574;SDS011;4325;42.520;27.448;2022-07-29T10:34:44;3.30;;;2.60;;
8574;SDS011;4325;42.520;27.448;2022-07-29T10:37:37;6.30;;;2.33;;
8574;SDS011;4325;42.520;27.448;2022-07-29T10:40:17;6.82;;;2.55;;
8574;SDS011;4325;42.520;27.448;2022-07-29T10:43:14;6.47;;;2.40;;
8574;SDS011;4325;42.520;27.448;2022-07-29T10:45:45;7.80;;;2.60;;
8574;SDS011;4325;42.520;27.448;2022-07-29T10:48:14;8.50;;;2.47;;
8574;SDS011;4325;42.520;27.448;2022-07-29T10:53:47;5.43;;;2.47;;
8574;SDS011;4325;42.520;27.448;2022-07-29T10:56:25;8.88;;;2.90;;
8574;SDS011;4325;42.520;27.448;2022-07-29T11:01:51;5.25;;;2.50;;
8574;SDS011;4325;42.520;27.448;2022-07-29T11:07:20;5.47;;;2.40;;
8574;SDS011;4325;42.520;27.448;2022-07-29T11:12:47;5.35;;;1.98;;
8574;SDS011;4325;42.520;27.448;2022-07-29T11:15:15;6.85;;;2.28;;
8574;SDS011;4325;42.520;27.448;2022-07-29T11:20:35;5.35;;;2.15;;
8574;SDS011;4325;42.520;27.448;2022-07-29T11:23:25;2.28;;;2.00;;
8574;SDS011;4325;42.520;27.448;2022-07-29T11:28:52;3.90;;;2.13;;
8574;SDS011;4325;42.520;27.448;2022-07-29T11:31:33;4.28;;;2.33;;
8574;SDS011;4325;42.520;27.448;2022-07-29T11:34:16;6.38;;;2.03;;
8574;SDS011;4325;42.520;27.448;2022-07-29T11:39:45;4.43;;;2.33;;
8574;SDS011;4325;42.520;27.448;2022-07-29T11:45:06;7.45;;;2.30;;
8574;SDS011;4325;42.520;27.448;2022-07-29T11:47:35;3.13;;;2.53;;
8574;SDS011;4325;42.520;27.448;2022-07-29T11:50:04;6.53;;;2.38;;
8574;SDS011;4325;42.520;27.448;2022-07-29T11:52:32;5.40;;;2.42;;
8574;SDS011;4325;42.520;27.448;2022-07-29T11:55:04;9.85;;;4.00;;
8574;SDS011;4325;42.520;27.448;2022-07-29T11:57:33;2.45;;;2.22;;
8574;SDS011;4325;42.520;27.448;2022-07-29T12:00:02;3.92;;;2.85;;
8574;SDS011;4325;42.520;27.448;2022-07-29T12:02:38;4.35;;;2.30;;
8574;SDS011;4325;42.520;27.448;2022-07-29T12:05:07;3.90;;;2.47;;
8574;SDS011;4325;42.520;27.448;2022-07-29T12:07:35;2.65;;;2.30;;
8574;SDS011;4325;42.520;27.448;2022-07-29T12:10:04;7.80;;;2.28;;
8574;SDS011;4325;42.520;27.448;2022-07-29T12:12:32;5.93;;;2.20;;
8574;SDS011;4325;42.520;27.448;2022-07-29T12:15:10;4.65;;;2.17;;
8574;SDS011;4325;42.520;27.448;2022-07-29T12:17:42;5.07;;;2.22;;
8574;SDS011;4325;42.520;27.448;2022-07-29T12:20:09;3.40;;;2.38;;
8574;SDS011;4325;42.520;27.448;2022-07-29T12:22:38;6.60;;;2.10;;
8574;SDS011;4325;42.520;27.448;2022-07-29T12:25:12;3.50;;;2.20;;
8574;SDS011;4325;42.520;27.448;2022-07-29T12:27:42;6.45;;;2.30;;
8574;SDS011;4325;42.520;27.448;2022-07-29T12:30:10;7.68;;;1.92;;
8574;SDS011;4325;42.520;27.448;2022-07-29T12:32:39;2.13;;;1.92;;
8574;SDS011;4325;42.520;27.448;2022-07-29T12:35:07;7.15;;;2.22;;
8574;SDS011;4325;42.520;27.448;2022-07-29T12:37:36;3.83;;;2.25;;
8574;SDS011;4325;42.520;27.448;2022-07-29T12:40:05;4.53;;;2.85;;
8574;SDS011;4325;42.520;27.448;2022-07-29T12:42:35;3.50;;;2.13;;
8574;SDS011;4325;42.520;27.448;2022-07-29T12:45:03;5.70;;;3.63;;
8574;SDS011;4325;42.520;27.448;2022-07-29T12:47:30;5.43;;;3.97;;
8574;SDS011;4325;42.520;27.448;2022-07-29T12:50:07;5.38;;;2.72;;
8574;SDS011;4325;42.520;27.448;2022-07-29T12:52:35;3.83;;;2.50;;
8574;SDS011;4325;42.520;27.448;2022-07-29T12:55:03;8.02;;;2.40;;
8574;SDS011;4325;42.520;27.448;2022-07-29T12:57:31;6.32;;;2.28;;
8574;SDS011;4325;42.520;27.448;2022-07-29T13:00:00;4.53;;;2.22;;
8574;SDS011;4325;42.520;27.448;2022-07-29T13:02:30;5.93;;;2.60;;
8574;SDS011;4325;42.520;27.448;2022-07-29T13:04:57;4.88;;;2.28;;
8574;SDS011;4325;42.520;27.448;2022-07-29T13:07:25;3.42;;;2.20;;
8574;SDS011;4325;42.520;27.448;2022-07-29T13:09:54;3.58;;;2.70;;
8574;SDS011;4325;42.520;27.448;2022-07-29T13:12:36;5.60;;;2.35;;
8574;SDS011;4325;42.520;27.448;2022-07-29T13:15:13;3.97;;;2.80;;
8574;SDS011;4325;42.520;27.448;2022-07-29T13:17:42;4.72;;;2.70;;
8574;SDS011;4325;42.520;27.448;2022-07-29T13:20:09;6.10;;;2.80;;
8574;SDS011;4325;42.520;27.448;2022-07-29T13:22:39;3.95;;;2.40;;
8574;SDS011;4325;42.520;27.448;2022-07-29T13:25:07;4.82;;;2.60;;
8574;SDS011;4325;42.520;27.448;2022-07-29T13:27:36;4.47;;;2.70;;
8574;SDS011;4325;42.520;27.448;2022-07-29T13:30:05;5.15;;;2.50;;
8574;SDS011;4325;42.520;27.448;2022-07-29T13:32:35;5.90;;;2.63;;
8574;SDS011;4325;42.520;27.448;2022-07-29T13:35:03;4.28;;;2.60;;
8574;SDS011;4325;42.520;27.448;2022-07-29T13:37:32;5.38;;;2.40;;
8574;SDS011;4325;42.520;27.448;2022-07-29T13:40:00;4.60;;;2.70;;
8574;SDS011;4325;42.520;27.448;2022-07-29T13:42:28;6.85;;;2.75;;
8574;SDS011;4325;42.520;27.448;2022-07-29T13:44:55;6.63;;;2.67;;
8574;SDS011;4325;42.520;27.448;2022-07-29T13:47:22;4.65;;;3.13;;
8574;SDS011;4325;42.520;27.448;2022-07-29T13:49:50;3.63;;;2.40;;
8574;SDS011;4325;42.520;27.448;2022-07-29T13:52:18;8.43;;;2.90;;
8574;SDS011;4325;42.520;27.448;2022-07-29T13:54:45;4.25;;;2.40;;
8574;SDS011;4325;42.520;27.448;2022-07-29T13:57:12;4.68;;;2.40;;
8574;SDS011;4325;42.520;27.448;2022-07-29T13:59:40;8.15;;;2.83;;
8574;SDS011;4325;42.520;27.448;2022-07-29T14:02:07;7.70;;;2.80;;
8574;SDS011;4325;42.520;27.448;2022-07-29T14:04:35;5.43;;;2.55;;
8574;SDS011;4325;42.520;27.448;2022-07-29T14:07:03;6.55;;;2.60;;
8574;SDS011;4325;42.520;27.448;2022-07-29T14:09:30;5.85;;;3.00;;
8574;SDS011;4325;42.520;27.448;2022-07-29T14:11:57;4.68;;;2.97;;
8574;SDS011;4325;42.520;27.448;2022-07-29T14:14:24;6.32;;;3.20;;
8574;SDS011;4325;42.520;27.448;2022-07-29T14:16:51;7.03;;;3.38;;
8574;SDS011;4325;42.520;27.448;2022-07-29T14:19:17;5.28;;;2.97;;
8574;SDS011;4325;42.520;27.448;2022-07-29T14:21:44;4.53;;;4.03;;
8574;SDS011;4325;42.520;27.448;2022-07-29T14:24:13;7.53;;;3.22;;
8574;SDS011;4325;42.520;27.448;2022-07-29T14:26:39;5.03;;;4.53;;
8574;SDS011;4325;42.520;27.448;2022-07-29T14:29:06;8.90;;;3.90;;
8574;SDS011;4325;42.520;27.448;2022-07-29T14:31:33;6.00;;;3.92;;
8574;SDS011;4325;42.520;27.448;2022-07-29T14:34:00;6.57;;;2.78;;
8574;SDS011;4325;42.520;27.448;2022-07-29T14:36:27;4.97;;;2.45;;
8574;SDS011;4325;42.520;27.448;2022-07-29T14:38:53;3.80;;;3.20;;
8574;SDS011;4325;42.520;27.448;2022-07-29T14:41:22;6.60;;;4.33;;
8574;SDS011;4325;42.520;27.448;2022-07-29T14:43:49;5.13;;;2.70;;
8574;SDS011;4325;42.520;27.448;2022-07-29T14:46:17;7.67;;;3.33;;
8574;SDS011;4325;42.520;27.448;2022-07-29T14:48:44;5.13;;;3.07;;
8574;SDS011;4325;42.520;27.448;2022-07-29T14:51:10;7.70;;;3.07;;
8574;SDS011;4325;42.520;27.448;2022-07-29T14:53:37;7.20;;;3.27;;
8574;SDS011;4325;42.520;27.448;2022-07-29T14:56:04;3.77;;;2.90;;
8574;SDS011;4325;42.520;27.448;2022-07-29T14:58:32;5.33;;;2.90;;
8574;SDS011;4325;42.520;27.448;2022-07-29T15:00:59;4.90;;;2.93;;
8574;SDS011;4325;42.520;27.448;2022-07-29T15:03:26;7.67;;;3.30;;
8574;SDS011;4325;42.520;27.448;2022-07-29T15:05:53;4.67;;;3.13;;
8574;SDS011;4325;42.520;27.448;2022-07-29T15:08:20;7.17;;;2.97;;
8574;SDS011;4325;42.520;27.448;2022-07-29T15:10:48;8.07;;;3.50;;
8574;SDS011;4325;42.520;27.448;2022-07-29T15:13:15;6.17;;;3.30;;
8574;SDS011;4325;42.520;27.448;2022-07-29T15:15:43;3.60;;;2.50;;
8574;SDS011;4325;42.520;27.448;2022-07-29T15:18:10;3.40;;;2.90;;
8574;SDS011;4325;42.520;27.448;2022-07-29T15:20:37;5.43;;;4.17;;
8574;SDS011;4325;42.520;27.448;2022-07-29T15:23:04;7.07;;;3.90;;
8574;SDS011;4325;42.520;27.448;2022-07-29T15:25:34;9.07;;;3.13;;
8574;SDS011;4325;42.520;27.448;2022-07-29T15:28:02;5.13;;;2.93;;
8574;SDS011;4325;42.520;27.448;2022-07-29T15:30:32;7.03;;;3.50;;
8574;SDS011;4325;42.520;27.448;2022-07-29T15:33:01;5.07;;;3.33;;
8574;SDS011;4325;42.520;27.448;2022-07-29T15:35:28;6.47;;;3.53;;
8574;SDS011;4325;42.520;27.448;2022-07-29T15:37:55;6.93;;;3.10;;